createdAt,value
2023-01-28T00:00:54.511Z,2.85
2023-01-28T00:01:56.779Z,2.67
2023-01-28T00:02:59.084Z,2.67
2023-01-28T00:04:01.633Z,3.05
2023-01-28T00:05:04.987Z,3.13
2023-01-28T00:06:18.835Z,2.80
2023-01-28T00:07:21.655Z,2.60
2023-01-28T00:08:23.972Z,3.30
2023-01-28T00:09:26.197Z,2.85
2023-01-28T00:10:28.493Z,2.60
2023-01-28T00:11:30.699Z,2.55
2023-01-28T00:12:32.956Z,3.42
2023-01-28T00:13:35.304Z,2.47
2023-01-28T00:14:38.008Z,2.75
2023-01-28T00:15:40.439Z,2.20
2023-01-28T00:16:42.673Z,2.88
2023-01-28T00:17:44.910Z,3.15
2023-01-28T00:18:47.259Z,2.67
2023-01-28T00:19:49.536Z,2.97
2023-01-28T00:21:10.845Z,2.80
2023-01-28T00:22:13.101Z,2.60
2023-01-28T00:23:15.331Z,3.45
2023-01-28T00:24:17.649Z,2.80
2023-01-28T00:25:20.083Z,2.30
2023-01-28T00:26:24.472Z,3.67
2023-01-28T00:27:26.729Z,3.00
2023-01-28T00:28:29.339Z,2.42
2023-01-28T00:29:32.232Z,2.47
2023-01-28T00:30:34.522Z,3.10
2023-01-28T00:31:37.788Z,2.58
2023-01-28T00:32:42.519Z,3.17
2023-01-28T00:33:48.197Z,2.63
2023-01-28T00:34:50.494Z,2.50
2023-01-28T00:36:00.351Z,3.40
2023-01-28T00:37:02.603Z,3.08
2023-01-28T00:38:07.387Z,2.78
2023-01-28T00:39:15.300Z,2.83
2023-01-28T00:40:18.022Z,2.97
2023-01-28T00:41:22.089Z,3.17
2023-01-28T00:42:26.339Z,3.05
2023-01-28T00:43:31.264Z,2.72
2023-01-28T00:44:33.485Z,2.65
2023-01-28T00:45:39.135Z,2.90
2023-01-28T00:46:42.081Z,2.97
2023-01-28T00:47:45.334Z,2.90
2023-01-28T00:48:48.433Z,3.08
2023-01-28T00:49:50.684Z,2.47
2023-01-28T00:50:52.952Z,3.83
2023-01-28T00:51:56.013Z,2.80
2023-01-28T00:52:58.404Z,3.53
2023-01-28T00:54:00.804Z,2.80
2023-01-28T00:55:03.251Z,3.45
2023-01-28T00:56:08.285Z,2.72
2023-01-28T00:57:10.583Z,2.70
2023-01-28T00:58:12.899Z,3.75
2023-01-28T00:59:15.327Z,2.95
2023-01-28T01:00:19.289Z,3.40
2023-01-28T01:01:27.708Z,2.47
2023-01-28T01:02:30.016Z,3.00
2023-01-28T01:03:32.287Z,3.03
2023-01-28T01:04:35.443Z,3.05
2023-01-28T01:05:38.967Z,2.95
2023-01-28T01:06:43.763Z,3.60
2023-01-28T01:07:46.011Z,3.10
2023-01-28T01:08:50.280Z,3.35
2023-01-28T01:09:53.202Z,2.90
2023-01-28T01:10:59.199Z,3.53
2023-01-28T01:12:01.769Z,3.20
2023-01-28T01:13:05.980Z,4.15
2023-01-28T01:14:10.450Z,3.50
2023-01-28T01:15:13.402Z,3.90
2023-01-28T01:16:19.251Z,3.20
2023-01-28T01:17:24.542Z,3.80
2023-01-28T01:18:26.856Z,2.97
2023-01-28T01:19:29.966Z,3.55
2023-01-28T01:20:33.634Z,3.03
2023-01-28T01:21:35.978Z,3.10
2023-01-28T01:22:38.592Z,3.70
2023-01-28T01:23:40.933Z,3.03
2023-01-28T01:24:43.234Z,3.28
2023-01-28T01:25:45.494Z,4.03
2023-01-28T01:26:47.797Z,3.47
2023-01-28T01:27:50.624Z,3.55
2023-01-28T01:28:53.707Z,4.35
2023-01-28T01:29:56.464Z,3.35
2023-01-28T01:31:03.752Z,4.05
2023-01-28T01:32:06.162Z,4.43
2023-01-28T01:33:08.456Z,3.78
2023-01-28T01:34:10.701Z,3.80
2023-01-28T01:35:13.356Z,4.00
2023-01-28T01:36:18.531Z,3.20
2023-01-28T01:37:20.865Z,3.50
2023-01-28T01:38:23.365Z,3.10
2023-01-28T01:39:25.757Z,3.55
2023-01-28T01:40:29.672Z,6.20
2023-01-28T01:41:33.471Z,3.33
2023-01-28T01:42:35.809Z,3.60
2023-01-28T01:43:56.637Z,2.97
2023-01-28T01:45:00.492Z,3.90
2023-01-28T01:46:02.911Z,4.13
2023-01-28T01:47:05.313Z,3.72
2023-01-28T01:48:24.976Z,3.38
2023-01-28T01:49:28.927Z,4.10
2023-01-28T01:50:33.975Z,4.63
2023-01-28T01:51:37.889Z,3.83
2023-01-28T01:52:41.315Z,4.60
2023-01-28T01:53:48.391Z,4.00
2023-01-28T01:54:56.057Z,3.50
2023-01-28T01:56:04.363Z,3.33
2023-01-28T01:57:09.341Z,3.53
2023-01-28T01:58:17.660Z,3.30
2023-01-28T01:59:24.875Z,3.67
2023-01-28T02:00:27.329Z,3.72
2023-01-28T02:01:32.231Z,3.40
2023-01-28T02:02:38.289Z,3.65
2023-01-28T02:04:00.980Z,3.55
2023-01-28T02:05:04.150Z,4.40
2023-01-28T02:06:08.274Z,3.78
2023-01-28T02:07:14.515Z,3.58
2023-01-28T02:08:23.076Z,3.58
2023-01-28T02:09:27.953Z,4.05
2023-01-28T02:10:30.631Z,4.63
2023-01-28T02:11:34.780Z,3.60
2023-01-28T02:12:56.706Z,4.15
2023-01-28T02:14:05.044Z,4.55
2023-01-28T02:15:17.973Z,3.30
2023-01-28T02:16:20.856Z,4.53
2023-01-28T02:17:23.772Z,3.70
2023-01-28T02:18:26.355Z,3.53
2023-01-28T02:19:37.291Z,3.60
2023-01-28T02:20:59.868Z,3.25
2023-01-28T02:22:32.141Z,3.47
2023-01-28T02:23:49.027Z,3.38
2023-01-28T02:25:03.816Z,3.80
2023-01-28T02:26:18.223Z,4.10
2023-01-28T02:27:49.508Z,3.38
2023-01-28T02:29:08.590Z,3.25
2023-01-28T02:30:21.655Z,3.90
2023-01-28T02:31:31.169Z,3.83
2023-01-28T02:33:00.931Z,3.40
2023-01-28T02:34:12.898Z,3.53
2023-01-28T02:35:18.261Z,3.88
2023-01-28T02:36:44.017Z,3.63
2023-01-28T02:37:52.680Z,3.30
2023-01-28T02:38:58.916Z,4.10
2023-01-28T02:40:23.413Z,2.90
2023-01-28T02:41:31.668Z,3.45
2023-01-28T02:42:36.820Z,4.00
2023-01-28T02:43:42.341Z,4.00
2023-01-28T02:44:44.662Z,3.80
2023-01-28T02:46:05.782Z,3.90
2023-01-28T02:47:30.763Z,3.50
2023-01-28T02:48:33.137Z,3.35
2023-01-28T02:49:49.766Z,4.28
2023-01-28T02:51:05.432Z,3.65
2023-01-28T02:53:07.627Z,4.70
2023-01-28T02:54:21.766Z,4.03
2023-01-28T02:55:51.977Z,3.45
2023-01-28T02:57:05.694Z,3.53
2023-01-28T02:58:33.518Z,3.50
2023-01-28T02:59:49.688Z,3.13
2023-01-28T03:01:33.729Z,3.40
2023-01-28T03:02:50.941Z,3.58
2023-01-28T03:04:04.479Z,3.95
2023-01-28T03:05:23.047Z,3.40
2023-01-28T03:06:33.073Z,3.65
2023-01-28T03:07:38.326Z,3.05
2023-01-28T03:09:06.149Z,3.05
2023-01-28T03:10:16.480Z,3.45
2023-01-28T03:11:37.798Z,2.78
2023-01-28T03:13:02.341Z,3.47
2023-01-28T03:14:24.666Z,3.15
2023-01-28T03:15:54.191Z,3.90
2023-01-28T03:17:18.259Z,3.38
2023-01-28T03:18:54.059Z,3.65
2023-01-28T03:20:15.560Z,3.20
2023-01-28T03:21:51.603Z,3.22
2023-01-28T03:23:16.286Z,3.65
2023-01-28T03:24:54.119Z,3.40
2023-01-28T03:26:19.972Z,3.10
2023-01-28T03:28:07.133Z,3.30
2023-01-28T03:29:30.561Z,3.20
2023-01-28T03:30:59.509Z,3.40
2023-01-28T03:32:31.545Z,4.15
2023-01-28T03:33:55.135Z,3.42
2023-01-28T03:35:17.047Z,3.65
2023-01-28T03:36:38.359Z,3.40
2023-01-28T03:37:41.547Z,3.35
2023-01-28T03:38:53.121Z,3.50
2023-01-28T03:39:58.202Z,4.10
2023-01-28T03:41:03.134Z,3.45
2023-01-28T03:42:09.215Z,3.55
2023-01-28T03:43:17.715Z,3.42
2023-01-28T03:44:41.296Z,3.63
2023-01-28T03:45:43.548Z,2.97
2023-01-28T03:46:45.867Z,3.30
2023-01-28T03:47:48.208Z,3.65
2023-01-28T03:48:51.193Z,4.88
2023-01-28T03:49:56.269Z,3.65
2023-01-28T03:51:00.497Z,3.50
2023-01-28T03:52:04.788Z,3.33
2023-01-28T03:53:16.391Z,3.90
2023-01-28T03:54:23.013Z,3.63
2023-01-28T03:55:25.915Z,4.35
2023-01-28T03:56:32.497Z,3.80
2023-01-28T03:57:35.116Z,3.63
2023-01-28T03:58:46.686Z,4.18
2023-01-28T03:59:50.801Z,4.13
2023-01-28T04:00:54.231Z,3.75
2023-01-28T04:01:56.650Z,4.30
2023-01-28T04:03:01.113Z,4.18
2023-01-28T04:04:03.554Z,4.43
2023-01-28T04:05:12.965Z,3.63
2023-01-28T04:06:21.113Z,3.45
2023-01-28T04:08:01.665Z,5.53
2023-01-28T04:09:26.816Z,5.28
2023-01-28T04:10:33.221Z,5.30
2023-01-28T04:11:49.561Z,4.63
2023-01-28T04:12:57.592Z,5.20
2023-01-28T04:14:01.250Z,5.00
2023-01-28T04:15:16.230Z,4.88
2023-01-28T04:16:21.253Z,5.22
2023-01-28T04:17:24.645Z,4.63
2023-01-28T04:18:27.517Z,4.60
2023-01-28T04:19:37.331Z,4.60
2023-01-28T04:20:40.939Z,5.20
2023-01-28T04:21:43.569Z,5.13
2023-01-28T04:22:45.798Z,4.10
2023-01-28T04:23:49.606Z,4.40
2023-01-28T04:24:51.939Z,4.25
2023-01-28T04:25:54.610Z,4.63
2023-01-28T04:26:58.051Z,4.80
2023-01-28T04:28:01.089Z,5.10
2023-01-28T04:29:06.303Z,4.30
2023-01-28T04:30:11.176Z,5.05
2023-01-28T04:31:16.535Z,4.93
2023-01-28T04:32:18.872Z,6.05
2023-01-28T04:33:39.459Z,6.60
2023-01-28T04:34:50.791Z,5.93
2023-01-28T04:36:23.683Z,5.70
2023-01-28T04:37:45.127Z,5.75
2023-01-28T04:39:03.764Z,5.82
2023-01-28T04:40:21.312Z,5.63
2023-01-28T04:41:31.750Z,5.13
2023-01-28T04:42:40.403Z,4.90
2023-01-28T04:44:00.224Z,4.40
2023-01-28T04:45:02.509Z,5.53
2023-01-28T04:46:24.541Z,6.30
2023-01-28T04:47:49.882Z,5.80
2023-01-28T04:49:12.505Z,5.25
2023-01-28T04:50:33.655Z,5.13
2023-01-28T04:51:47.740Z,4.30
2023-01-28T04:52:49.991Z,4.78
2023-01-28T04:54:01.085Z,5.25
2023-01-28T04:55:07.536Z,5.03
2023-01-28T04:56:09.863Z,5.43
2023-01-28T04:57:12.971Z,5.45
2023-01-28T04:58:15.280Z,5.40
2023-01-28T04:59:20.036Z,5.82
2023-01-28T05:00:23.428Z,5.82
2023-01-28T05:01:27.302Z,5.00
2023-01-28T05:02:29.665Z,5.28
2023-01-28T05:03:32.370Z,6.43
2023-01-28T05:04:35.698Z,5.30
2023-01-28T05:05:37.980Z,4.82
2023-01-28T05:06:53.802Z,5.78
2023-01-28T05:08:01.075Z,5.53
2023-01-28T05:09:03.629Z,5.57
2023-01-28T05:10:06.615Z,5.20
2023-01-28T05:11:08.928Z,5.65
2023-01-28T05:12:11.183Z,5.15
2023-01-28T05:13:14.576Z,5.25
2023-01-28T05:14:16.931Z,5.32
2023-01-28T05:15:22.906Z,6.18
2023-01-28T05:16:26.679Z,5.20
2023-01-28T05:17:29.604Z,5.60
2023-01-28T05:18:32.277Z,5.32
2023-01-28T05:19:43.895Z,7.45
2023-01-28T05:20:53.010Z,6.85
2023-01-28T05:21:55.280Z,8.82
2023-01-28T05:23:07.893Z,8.85
2023-01-28T05:24:26.069Z,8.88
2023-01-28T05:25:29.060Z,8.43
2023-01-28T05:26:32.485Z,8.82
2023-01-28T05:27:34.891Z,7.75
2023-01-28T05:28:37.203Z,7.57
2023-01-28T05:29:39.603Z,10.07
2023-01-28T05:30:42.077Z,14.40
2023-01-28T05:31:44.408Z,17.85
2023-01-28T05:32:47.823Z,19.23
2023-01-28T05:33:55.445Z,19.20
2023-01-28T05:34:58.452Z,18.67
2023-01-28T05:36:01.131Z,19.25
2023-01-28T05:37:03.959Z,18.55
2023-01-28T05:38:08.323Z,16.88
2023-01-28T05:39:10.661Z,15.80
2023-01-28T05:40:13.531Z,17.02
2023-01-28T05:41:16.255Z,13.80
2023-01-28T05:42:22.603Z,26.00
2023-01-28T05:43:28.945Z,28.23
2023-01-28T05:44:49.904Z,28.23
2023-01-28T05:45:59.220Z,36.00
2023-01-28T05:47:11.072Z,34.95
2023-01-28T05:48:20.686Z,34.10
2023-01-28T05:49:33.463Z,27.88
2023-01-28T05:50:54.262Z,29.95
2023-01-28T05:52:04.757Z,26.00
2023-01-28T05:53:08.128Z,27.27
2023-01-28T05:54:11.635Z,27.15
2023-01-28T05:55:14.991Z,32.33
2023-01-28T05:56:17.613Z,32.40
2023-01-28T05:57:19.896Z,23.58
2023-01-28T05:58:22.929Z,13.57
2023-01-28T05:59:25.287Z,16.27
2023-01-28T06:00:29.892Z,17.42
2023-01-28T06:01:32.523Z,17.75
2023-01-28T06:02:35.132Z,17.92
2023-01-28T06:03:37.426Z,18.98
2023-01-28T06:04:40.087Z,17.35
2023-01-28T06:05:42.415Z,14.95
2023-01-28T06:06:45.341Z,15.63
2023-01-28T06:07:48.737Z,14.55
2023-01-28T06:08:51.397Z,12.30
2023-01-28T06:10:00.159Z,12.40
2023-01-28T06:11:02.462Z,10.75
2023-01-28T06:12:08.728Z,9.80
2023-01-28T06:13:21.873Z,8.90
2023-01-28T06:14:36.101Z,8.77
2023-01-28T06:15:50.112Z,7.78
2023-01-28T06:17:11.118Z,7.55
2023-01-28T06:18:33.387Z,7.13
2023-01-28T06:19:35.953Z,5.93
2023-01-28T06:20:38.419Z,5.55
2023-01-28T06:21:43.300Z,5.63
2023-01-28T06:22:45.640Z,5.85
2023-01-28T06:23:47.913Z,5.25
2023-01-28T06:24:50.172Z,5.35
2023-01-28T06:25:56.783Z,4.63
2023-01-28T06:27:00.080Z,5.25
2023-01-28T06:28:02.343Z,3.97
2023-01-28T06:29:04.723Z,4.50
2023-01-28T06:30:07.605Z,4.28
2023-01-28T06:31:09.847Z,4.97
2023-01-28T06:32:12.391Z,4.22
2023-01-28T06:33:14.687Z,3.95
2023-01-28T06:34:17.302Z,4.05
2023-01-28T06:35:19.568Z,4.00
2023-01-28T06:36:21.829Z,3.80
2023-01-28T06:37:26.195Z,3.38
2023-01-28T06:38:28.562Z,3.63
2023-01-28T06:39:34.491Z,3.55
2023-01-28T06:40:36.966Z,3.10
2023-01-28T06:41:39.330Z,5.30
2023-01-28T06:42:41.688Z,4.35
2023-01-28T06:43:44.040Z,3.42
2023-01-28T06:44:46.271Z,3.70
2023-01-28T06:45:48.562Z,5.25
2023-01-28T06:46:51.004Z,5.43
2023-01-28T06:47:53.390Z,11.60
2023-01-28T06:48:55.620Z,11.13
2023-01-28T06:49:57.925Z,9.68
2023-01-28T06:51:00.322Z,9.98
2023-01-28T06:52:02.663Z,9.35
2023-01-28T06:53:04.902Z,7.90
2023-01-28T06:54:07.367Z,6.93
2023-01-28T06:55:09.955Z,6.20
2023-01-28T06:56:12.276Z,7.05
2023-01-28T06:57:14.551Z,6.20
2023-01-28T06:58:17.031Z,5.07
2023-01-28T06:59:19.280Z,4.95
2023-01-28T07:00:21.787Z,5.60
2023-01-28T07:01:24.253Z,3.83
2023-01-28T07:02:27.747Z,4.93
2023-01-28T07:03:30.213Z,4.22
2023-01-28T07:04:32.528Z,3.70
2023-01-28T07:05:34.940Z,4.00
2023-01-28T07:06:37.191Z,3.97
2023-01-28T07:07:41.934Z,3.90
2023-01-28T07:08:44.446Z,3.50
2023-01-28T07:09:46.746Z,3.13
2023-01-28T07:10:49.716Z,3.17
2023-01-28T07:11:51.983Z,2.88
2023-01-28T07:12:54.357Z,2.92
2023-01-28T07:13:56.576Z,3.23
2023-01-28T07:14:58.847Z,3.25
2023-01-28T07:16:01.352Z,3.45
2023-01-28T07:17:03.642Z,3.40
2023-01-28T07:18:06.396Z,3.53
2023-01-28T07:19:09.710Z,3.40
2023-01-28T07:20:15.147Z,3.58
2023-01-28T07:21:17.738Z,2.97
2023-01-28T07:22:19.968Z,3.63
2023-01-28T07:23:22.496Z,3.33
2023-01-28T07:24:24.805Z,3.22
2023-01-28T07:25:27.129Z,3.10
2023-01-28T07:26:29.340Z,3.05
2023-01-28T07:27:31.648Z,3.50
2023-01-28T07:28:33.958Z,3.35
2023-01-28T07:29:36.237Z,3.15
2023-01-28T07:30:38.554Z,2.90
2023-01-28T07:31:40.865Z,3.17
2023-01-28T07:32:43.462Z,2.58
2023-01-28T07:33:45.767Z,3.20
2023-01-28T07:34:48.020Z,2.58
2023-01-28T07:35:50.344Z,2.95
2023-01-28T07:36:52.615Z,2.67
2023-01-28T07:37:56.737Z,2.90
2023-01-28T07:38:58.958Z,3.10
2023-01-28T07:40:01.206Z,2.75
2023-01-28T07:41:03.682Z,2.42
2023-01-28T07:42:06.609Z,2.47
2023-01-28T07:43:13.407Z,2.85
2023-01-28T07:44:16.421Z,2.55
2023-01-28T07:45:18.664Z,2.45
2023-01-28T07:46:21.729Z,2.58
2023-01-28T07:47:24.034Z,2.58
2023-01-28T07:48:26.306Z,2.40
2023-01-28T07:49:28.656Z,2.10
2023-01-28T07:50:33.825Z,2.58
2023-01-28T07:51:36.099Z,2.63
2023-01-28T07:52:44.392Z,2.25
2023-01-28T07:53:46.768Z,2.38
2023-01-28T07:54:49.087Z,2.30
2023-01-28T07:55:51.413Z,2.50
2023-01-28T07:56:53.650Z,2.45
2023-01-28T07:57:58.269Z,2.53
2023-01-28T07:59:00.651Z,2.10
2023-01-28T08:00:03.754Z,2.50
2023-01-28T08:01:14.454Z,2.50
2023-01-28T08:02:17.677Z,2.50
2023-01-28T08:03:20.110Z,2.60
2023-01-28T08:04:22.561Z,2.80
2023-01-28T08:05:27.312Z,2.45
2023-01-28T08:06:30.252Z,2.47
2023-01-28T08:07:32.520Z,2.28
2023-01-28T08:08:34.765Z,2.55
2023-01-28T08:09:37.184Z,2.75
2023-01-28T08:10:39.980Z,2.70
2023-01-28T08:11:42.622Z,2.10
2023-01-28T08:12:55.958Z,2.35
2023-01-28T08:13:58.296Z,2.90
2023-01-28T08:15:00.571Z,2.67
2023-01-28T08:16:02.964Z,2.15
2023-01-28T08:17:05.300Z,2.80
2023-01-28T08:18:09.520Z,2.47
2023-01-28T08:19:11.736Z,2.20
2023-01-28T08:20:14.851Z,2.65
2023-01-28T08:21:17.202Z,2.50
2023-01-28T08:22:19.511Z,2.50
2023-01-28T08:23:23.269Z,2.63
2023-01-28T08:24:26.696Z,2.80
2023-01-28T08:25:28.965Z,3.00
2023-01-28T08:26:31.210Z,3.40
2023-01-28T08:27:33.540Z,2.90
2023-01-28T08:28:35.733Z,2.33
2023-01-28T08:29:38.355Z,2.20
2023-01-28T08:30:41.295Z,3.05
2023-01-28T08:31:44.340Z,2.58
2023-01-28T08:32:46.627Z,2.58
2023-01-28T08:33:48.846Z,1.77
2023-01-28T08:34:51.213Z,2.40
2023-01-28T08:35:53.607Z,2.63
2023-01-28T08:36:55.903Z,2.85
2023-01-28T08:38:01.003Z,2.88
2023-01-28T08:39:03.488Z,2.80
2023-01-28T08:40:06.527Z,3.33
2023-01-28T08:41:08.775Z,2.90
2023-01-28T08:42:11.223Z,2.38
2023-01-28T08:43:13.789Z,2.40
2023-01-28T08:44:16.225Z,2.97
2023-01-28T08:45:19.357Z,2.65
2023-01-28T08:46:21.654Z,2.50
2023-01-28T08:47:23.905Z,2.60
2023-01-28T08:48:26.264Z,2.90
2023-01-28T08:49:28.568Z,2.80
2023-01-28T08:50:33.842Z,2.33
2023-01-28T08:51:36.093Z,2.85
2023-01-28T08:52:38.333Z,2.92
2023-01-28T08:53:40.582Z,3.05
2023-01-28T08:54:42.967Z,2.75
2023-01-28T08:55:46.487Z,3.25
2023-01-28T08:56:49.452Z,2.88
2023-01-28T08:57:52.016Z,2.85
2023-01-28T08:58:54.285Z,3.20
2023-01-28T08:59:56.583Z,3.65
2023-01-28T09:00:58.885Z,3.55
2023-01-28T09:02:01.122Z,3.42
2023-01-28T09:03:06.138Z,3.80
2023-01-28T09:04:08.736Z,4.03
2023-01-28T09:05:11.601Z,4.70
2023-01-28T09:06:13.883Z,4.18
2023-01-28T09:07:16.127Z,4.20
2023-01-28T09:08:18.433Z,4.35
2023-01-28T09:09:20.863Z,4.72
2023-01-28T09:10:23.144Z,5.40
2023-01-28T09:11:25.716Z,5.45
2023-01-28T09:12:27.931Z,5.90
2023-01-28T09:13:30.259Z,6.00
2023-01-28T09:14:32.546Z,5.20
2023-01-28T09:15:35.615Z,5.10
2023-01-28T09:16:37.868Z,5.40
2023-01-28T09:17:40.571Z,5.28
2023-01-28T09:18:43.076Z,4.65
2023-01-28T09:19:45.341Z,5.72
2023-01-28T09:20:47.657Z,6.00
2023-01-28T09:21:50.000Z,4.43
2023-01-28T09:22:52.459Z,5.28
2023-01-28T09:23:55.889Z,5.45
2023-01-28T09:24:58.203Z,5.18
2023-01-28T09:26:02.003Z,5.05
2023-01-28T09:27:04.263Z,4.03
2023-01-28T09:28:07.500Z,4.65
2023-01-28T09:29:09.819Z,4.78
2023-01-28T09:30:14.328Z,4.05
2023-01-28T09:31:16.826Z,4.43
2023-01-28T09:32:19.161Z,3.97
2023-01-28T09:33:21.411Z,4.25
2023-01-28T09:34:23.685Z,3.47
2023-01-28T09:35:26.344Z,5.10
2023-01-28T09:36:28.564Z,3.90
2023-01-28T09:37:30.879Z,7.10
2023-01-28T09:38:35.176Z,6.50
2023-01-28T09:39:38.134Z,6.78
2023-01-28T09:40:43.414Z,5.13
2023-01-28T09:41:53.976Z,5.50
2023-01-28T09:43:18.684Z,5.55
2023-01-28T09:44:41.203Z,6.13
2023-01-28T09:45:47.950Z,6.05
2023-01-28T09:46:50.881Z,4.63
2023-01-28T09:47:56.065Z,5.20
2023-01-28T09:49:02.103Z,5.13
2023-01-28T09:50:11.964Z,4.70
2023-01-28T09:51:29.684Z,5.03
2023-01-28T09:52:36.787Z,5.68
2023-01-28T09:53:45.411Z,4.55
2023-01-28T09:54:50.870Z,5.00
2023-01-28T09:55:57.769Z,4.90
2023-01-28T09:57:13.831Z,5.63
2023-01-28T09:58:18.449Z,4.45
2023-01-28T09:59:22.724Z,4.28
2023-01-28T10:00:39.000Z,4.95
2023-01-28T10:01:53.061Z,5.22
2023-01-28T10:03:17.442Z,4.75
2023-01-28T10:04:47.541Z,4.30
2023-01-28T10:06:06.297Z,4.53
2023-01-28T10:07:17.244Z,4.28
2023-01-28T10:09:03.106Z,4.63
2023-01-28T10:10:12.945Z,3.70
2023-01-28T10:11:38.283Z,4.32
2023-01-28T10:12:53.699Z,4.88
2023-01-28T10:14:48.466Z,4.45
2023-01-28T10:16:37.437Z,3.92
2023-01-28T10:17:45.697Z,4.32
2023-01-28T10:18:48.041Z,4.97
2023-01-28T10:20:00.540Z,5.25
2023-01-28T10:21:10.655Z,4.50
2023-01-28T10:22:37.696Z,4.22
2023-01-28T10:23:59.827Z,5.55
2023-01-28T10:25:15.740Z,5.60
2023-01-28T10:26:24.713Z,5.22
2023-01-28T10:27:30.936Z,5.00
2023-01-28T10:28:35.974Z,5.88
2023-01-28T10:29:39.992Z,4.93
2023-01-28T10:30:45.221Z,6.18
2023-01-28T10:31:55.578Z,7.13
2023-01-28T10:33:04.092Z,7.45
2023-01-28T10:34:06.473Z,8.00
2023-01-28T10:35:09.153Z,6.63
2023-01-28T10:36:11.575Z,5.38
2023-01-28T10:37:16.304Z,5.80
2023-01-28T10:38:22.397Z,4.97
2023-01-28T10:39:26.427Z,5.10
2023-01-28T10:40:29.307Z,5.10
2023-01-28T10:41:32.620Z,6.50
2023-01-28T10:42:38.135Z,6.55
2023-01-28T10:43:42.462Z,5.88
2023-01-28T10:44:45.744Z,4.88
2023-01-28T10:46:06.558Z,4.60
2023-01-28T10:47:17.013Z,4.40
2023-01-28T10:48:32.618Z,4.03
2023-01-28T10:49:42.041Z,3.35
2023-01-28T10:50:56.919Z,2.97
2023-01-28T10:51:59.343Z,9.95
2023-01-28T10:53:06.238Z,5.55
2023-01-28T10:54:21.078Z,5.28
2023-01-28T10:55:26.719Z,5.10
2023-01-28T10:56:31.655Z,3.95
2023-01-28T10:57:34.808Z,3.60
2023-01-28T10:59:07.673Z,3.30
2023-01-28T11:00:26.856Z,2.97
2023-01-28T11:02:06.125Z,2.85
2023-01-28T11:03:18.991Z,2.42
2023-01-28T11:04:25.684Z,3.40
2023-01-28T11:05:31.998Z,2.88
2023-01-28T11:06:34.215Z,3.85
2023-01-28T11:07:36.912Z,4.00
2023-01-28T11:08:45.152Z,3.80
2023-01-28T11:09:50.550Z,7.50
2023-01-28T11:10:54.886Z,17.80
2023-01-28T11:11:58.796Z,15.32
2023-01-28T11:13:06.258Z,15.27
2023-01-28T11:14:24.424Z,31.23
2023-01-28T11:15:27.174Z,20.27
2023-01-28T11:16:29.733Z,15.43
2023-01-28T11:17:35.988Z,16.35
2023-01-28T11:18:57.982Z,13.07
2023-01-28T11:20:09.921Z,12.48
2023-01-28T11:21:22.047Z,11.13
2023-01-28T11:22:30.172Z,16.90
2023-01-28T11:23:42.033Z,8.00
2023-01-28T11:24:44.394Z,7.43
2023-01-28T11:25:46.726Z,6.70
2023-01-28T11:26:52.100Z,8.32
2023-01-28T11:27:55.725Z,13.02
2023-01-28T11:28:58.301Z,10.63
2023-01-28T11:30:04.672Z,9.05
2023-01-28T11:31:07.581Z,6.70
2023-01-28T11:32:20.733Z,7.00
2023-01-28T11:33:32.449Z,4.70
2023-01-28T11:34:35.553Z,3.47
2023-01-28T11:35:37.902Z,3.30
2023-01-28T11:36:50.989Z,3.85
2023-01-28T11:37:53.322Z,3.17
2023-01-28T11:38:55.676Z,3.30
2023-01-28T11:40:22.341Z,2.92
2023-01-28T11:41:36.052Z,2.63
2023-01-28T11:42:38.344Z,3.08
2023-01-28T11:43:40.638Z,2.80
2023-01-28T11:44:43.973Z,2.35
2023-01-28T11:46:13.169Z,2.97
2023-01-28T11:47:27.770Z,2.30
2023-01-28T11:48:38.914Z,2.63
2023-01-28T11:50:31.859Z,2.30
2023-01-28T11:52:13.103Z,2.45
2023-01-28T11:53:47.670Z,2.42
2023-01-28T11:55:17.342Z,2.55
2023-01-28T11:56:35.729Z,1.90
2023-01-28T11:57:42.435Z,2.40
2023-01-28T11:59:04.937Z,2.35
2023-01-28T12:00:31.696Z,2.15
2023-01-28T12:01:43.660Z,1.77
2023-01-28T12:02:52.006Z,2.30
2023-01-28T12:04:17.353Z,1.95
2023-01-28T12:05:36.507Z,2.17
2023-01-28T12:07:05.990Z,2.47
2023-01-28T12:08:30.477Z,2.55
2023-01-28T12:10:02.108Z,2.20
2023-01-28T12:11:48.522Z,2.67
2023-01-28T12:12:53.705Z,1.58
2023-01-28T12:14:34.227Z,2.10
2023-01-28T12:16:02.112Z,2.50
2023-01-28T12:17:30.063Z,2.33
2023-01-28T12:18:51.067Z,2.13
2023-01-28T12:20:20.641Z,2.30
2023-01-28T12:21:31.664Z,2.10
2023-01-28T12:22:52.378Z,1.85
2023-01-28T12:24:16.033Z,2.13
2023-01-28T12:25:36.073Z,2.65
2023-01-28T12:26:41.367Z,2.17
2023-01-28T12:28:10.949Z,2.30
2023-01-28T12:29:47.681Z,2.22
2023-01-28T12:31:11.994Z,2.30
2023-01-28T12:32:39.309Z,2.13
2023-01-28T12:34:07.960Z,1.95
2023-01-28T12:35:25.161Z,1.80
2023-01-28T12:36:47.032Z,1.83
2023-01-28T12:38:09.435Z,2.05
2023-01-28T12:39:42.092Z,2.30
2023-01-28T12:40:50.765Z,2.33
2023-01-28T12:42:08.000Z,1.83
2023-01-28T12:43:42.534Z,1.90
2023-01-28T12:44:52.632Z,2.42
2023-01-28T12:45:59.800Z,1.77
2023-01-28T12:47:17.250Z,1.50
2023-01-28T12:48:27.187Z,2.38
2023-01-28T12:49:42.604Z,2.25
2023-01-28T12:50:52.043Z,1.65
2023-01-28T12:52:22.850Z,1.70
2023-01-28T12:54:08.211Z,2.13
2023-01-28T12:55:20.825Z,2.08
2023-01-28T12:56:29.061Z,1.85
2023-01-28T12:57:34.527Z,2.10
2023-01-28T12:58:57.819Z,2.40
2023-01-28T13:00:32.963Z,3.42
2023-01-28T13:01:45.273Z,7.70
2023-01-28T13:02:56.756Z,10.25
2023-01-28T13:04:38.319Z,10.93
2023-01-28T13:05:50.855Z,8.60
2023-01-28T13:07:04.438Z,7.55
2023-01-28T13:08:13.738Z,7.40
2023-01-28T13:09:27.156Z,5.03
2023-01-28T13:10:41.951Z,6.15
2023-01-28T13:11:45.335Z,5.97
2023-01-28T13:12:48.850Z,5.35
2023-01-28T13:13:51.560Z,4.85
2023-01-28T13:14:54.409Z,4.45
2023-01-28T13:15:57.032Z,3.55
2023-01-28T13:17:27.480Z,3.10
2023-01-28T13:18:42.490Z,2.65
2023-01-28T13:19:44.839Z,2.60
2023-01-28T13:20:50.917Z,2.55
2023-01-28T13:21:53.355Z,2.55
2023-01-28T13:23:04.447Z,2.60
2023-01-28T13:24:09.486Z,2.10
2023-01-28T13:25:30.060Z,2.38
2023-01-28T13:26:35.012Z,1.95
2023-01-28T13:27:37.291Z,1.75
2023-01-28T13:28:39.668Z,1.90
2023-01-28T13:29:47.742Z,1.60
2023-01-28T13:30:50.056Z,1.83
2023-01-28T13:31:54.807Z,1.65
2023-01-28T13:33:03.038Z,1.60
2023-01-28T13:34:06.601Z,1.65
2023-01-28T13:35:38.743Z,1.48
2023-01-28T13:36:48.411Z,1.48
2023-01-28T13:37:51.880Z,1.27
2023-01-28T13:39:23.815Z,1.40
2023-01-28T13:40:28.535Z,1.25
2023-01-28T13:41:55.331Z,1.30
2023-01-28T13:43:17.536Z,1.15
2023-01-28T13:44:35.688Z,1.08
2023-01-28T13:45:37.985Z,1.30
2023-01-28T13:46:40.454Z,1.40
2023-01-28T13:47:48.872Z,1.10
2023-01-28T13:48:54.893Z,1.33
2023-01-28T13:50:02.172Z,1.50
2023-01-28T13:51:09.856Z,0.80
2023-01-28T13:52:12.053Z,1.00
2023-01-28T13:53:23.859Z,1.00
2023-01-28T13:54:28.622Z,1.20
2023-01-28T13:55:45.095Z,0.90
2023-01-28T13:57:00.044Z,0.80
2023-01-28T13:58:05.236Z,1.30
2023-01-28T13:59:51.568Z,1.00
2023-01-28T14:01:15.357Z,0.82
2023-01-28T14:02:26.152Z,1.30
2023-01-28T14:04:25.847Z,0.80
2023-01-28T14:05:28.223Z,1.23
2023-01-28T14:06:39.088Z,1.17
2023-01-28T14:07:54.752Z,1.20
2023-01-28T14:09:26.609Z,1.48
2023-01-28T14:10:34.858Z,1.02
2023-01-28T14:12:03.397Z,1.50
2023-01-28T14:13:17.351Z,1.83
2023-01-28T14:14:28.724Z,1.20
2023-01-28T14:15:58.628Z,1.27
2023-01-28T14:17:24.443Z,1.40
2023-01-28T14:18:37.336Z,1.10
2023-01-28T14:19:40.464Z,1.20
2023-01-28T14:20:45.714Z,1.35
2023-01-28T14:21:48.009Z,1.08
2023-01-28T14:22:51.871Z,1.10
2023-01-28T14:23:57.234Z,1.00
2023-01-28T14:25:01.933Z,1.55
2023-01-28T14:26:32.916Z,1.40
2023-01-28T14:27:39.656Z,0.98
2023-01-28T14:29:19.493Z,1.20
2023-01-28T14:30:53.707Z,1.08
2023-01-28T14:31:56.291Z,1.50
2023-01-28T14:32:59.170Z,1.38
2023-01-28T14:34:22.535Z,1.10
2023-01-28T14:35:30.544Z,1.00
2023-01-28T14:36:40.634Z,1.30
2023-01-28T14:37:43.066Z,1.20
2023-01-28T14:38:46.386Z,1.80
2023-01-28T14:40:13.891Z,7.75
2023-01-28T14:41:26.418Z,38.00
2023-01-28T14:42:39.370Z,21.60
2023-01-28T14:43:42.164Z,21.38
2023-01-28T14:44:45.068Z,17.58
2023-01-28T14:46:15.418Z,18.92
2023-01-28T14:47:47.325Z,15.93
2023-01-28T14:49:16.158Z,15.30
2023-01-28T14:50:32.997Z,11.25
2023-01-28T14:51:44.121Z,10.40
2023-01-28T14:53:07.823Z,10.93
2023-01-28T14:54:50.508Z,8.32
2023-01-28T14:56:17.425Z,7.72
2023-01-28T14:57:27.066Z,6.22
2023-01-28T14:58:40.625Z,5.07
2023-01-28T14:59:49.685Z,5.35
2023-01-28T15:01:00.203Z,4.28
2023-01-28T15:02:05.087Z,4.25
2023-01-28T15:03:27.450Z,3.90
2023-01-28T15:04:34.357Z,3.30
2023-01-28T15:05:36.763Z,2.88
2023-01-28T15:06:39.120Z,2.30
2023-01-28T15:07:45.280Z,2.17
2023-01-28T15:08:48.414Z,2.00
2023-01-28T15:10:04.880Z,2.17
2023-01-28T15:11:11.470Z,2.53
2023-01-28T15:12:15.881Z,1.92
2023-01-28T15:13:30.465Z,1.80
2023-01-28T15:14:33.025Z,1.73
2023-01-28T15:15:37.885Z,2.00
2023-01-28T15:16:40.214Z,1.73
2023-01-28T15:17:42.571Z,1.60